createdAt,value
2019-02-07T00:03:00.956Z,98753.12
2019-02-07T00:08:04.823Z,98752.27
2019-02-07T00:13:10.334Z,98752.81
2019-02-07T00:18:14.003Z,98750.45
2019-02-07T00:23:18.103Z,98748.11
2019-02-07T00:28:22.339Z,98745.45
2019-02-07T00:33:27.053Z,98739.30
2019-02-07T00:38:31.690Z,98722.78
2019-02-07T00:43:35.508Z,98722.21
2019-02-07T00:48:39.215Z,98721.55
2019-02-07T00:53:44.951Z,98734.86
2019-02-07T00:58:48.615Z,98733.41
2019-02-07T01:03:52.292Z,98730.72
2019-02-07T01:08:59.044Z,98740.69
2019-02-07T01:14:03.470Z,98744.76
2019-02-07T01:19:07.844Z,98732.67
2019-02-07T01:24:11.828Z,98731.49
2019-02-07T01:29:16.237Z,98747.61
2019-02-07T01:34:20.331Z,98756.06
2019-02-07T01:39:24.143Z,98766.89
2019-02-07T01:44:27.857Z,98772.06
2019-02-07T01:49:31.791Z,98776.52
2019-02-07T01:54:35.696Z,98779.88
2019-02-07T01:59:41.309Z,98788.41
2019-02-07T02:04:45.165Z,98794.38
2019-02-07T02:09:48.941Z,98802.85
2019-02-07T02:14:52.978Z,98807.36
2019-02-07T02:19:56.888Z,98804.66
2019-02-07T02:25:01.668Z,98815.06
2019-02-07T02:30:11.083Z,98833.84
2019-02-07T02:35:15.076Z,98824.43
2019-02-07T02:40:18.991Z,98828.56
2019-02-07T02:45:23.037Z,98825.98
2019-02-07T02:50:27.100Z,98826.68
2019-02-07T02:55:33.367Z,98821.06
2019-02-07T03:01:02.576Z,98817.80
2019-02-07T03:06:24.828Z,98808.93
2019-02-07T03:11:46.035Z,98824.73
2019-02-07T03:17:15.058Z,98813.23
2019-02-07T03:22:37.280Z,98819.59
2019-02-07T03:27:59.049Z,98809.67
2019-02-07T03:33:33.599Z,98822.75
2019-02-07T03:39:02.977Z,98820.05
2019-02-07T03:44:37.925Z,98810.20
2019-02-07T03:50:13.544Z,98807.06
2019-02-07T03:55:35.010Z,98805.50
2019-02-07T04:01:01.762Z,98805.61
2019-02-07T04:06:34.333Z,98792.03
2019-02-07T04:11:57.337Z,98791.53
2019-02-07T04:17:29.751Z,98790.19
2019-02-07T04:22:59.067Z,98777.88
2019-02-07T04:28:24.585Z,98780.52
2019-02-07T04:33:54.428Z,98787.44
2019-02-07T04:39:17.872Z,98796.30
2019-02-07T04:44:40.886Z,98796.84
2019-02-07T04:50:10.208Z,98818.29
2019-02-07T04:55:42.321Z,98817.86
2019-02-07T05:01:25.845Z,98820.51
2019-02-07T05:06:42.689Z,98823.95
2019-02-07T05:11:58.741Z,98815.19
2019-02-07T05:17:21.433Z,98828.63
2019-02-07T05:22:44.758Z,98830.90
2019-02-07T05:28:06.588Z,98835.98
2019-02-07T05:33:28.565Z,98836.20
2019-02-07T05:38:52.308Z,98838.70
2019-02-07T05:44:08.687Z,98842.23
2019-02-07T05:49:41.121Z,98811.50
2019-02-07T05:55:10.355Z,98790.69
2019-02-07T06:00:42.916Z,98778.24
2019-02-07T06:06:06.557Z,98761.00
2019-02-07T06:11:29.390Z,98758.89
2019-02-07T06:17:04.743Z,98753.27
2019-02-07T06:22:28.027Z,98731.84
2019-02-07T06:27:49.710Z,98721.25
2019-02-07T06:33:11.619Z,98726.22
2019-02-07T06:38:33.861Z,98717.58
2019-02-07T06:44:04.407Z,98721.80
2019-02-07T06:49:46.040Z,98724.53
2019-02-07T06:55:18.688Z,98733.13
2019-02-07T07:00:51.221Z,98728.45
2019-02-07T07:06:15.673Z,98723.48
2019-02-07T07:11:38.475Z,98747.76
2019-02-07T07:17:04.705Z,98763.34
2019-02-07T07:22:26.493Z,98790.84
2019-02-07T07:27:59.157Z,98806.48
2019-02-07T07:33:34.561Z,98813.49
2019-02-07T07:39:07.600Z,98816.17
2019-02-07T07:44:26.269Z,98797.08
2019-02-07T07:49:48.338Z,98795.80
2019-02-07T07:55:01.540Z,98792.05
2019-02-07T08:00:41.489Z,98792.97
2019-02-07T08:06:03.809Z,98799.23
2019-02-07T08:11:35.655Z,98787.72
2019-02-07T08:16:49.646Z,98804.98
2019-02-07T08:22:12.124Z,98797.93
2019-02-07T08:27:34.264Z,98785.78
2019-02-07T08:32:57.050Z,98779.05
2019-02-07T08:38:18.943Z,98789.24
2019-02-07T08:43:41.038Z,98790.34
2019-02-07T08:49:22.914Z,98795.28
2019-02-07T08:54:53.118Z,98794.53
2019-02-07T09:00:15.184Z,98798.94
2019-02-07T09:05:45.014Z,98803.57
2019-02-07T09:11:07.514Z,98797.70
2019-02-07T09:16:39.877Z,98791.04
2019-02-07T09:22:06.101Z,98806.17
2019-02-07T09:27:38.712Z,98790.72
2019-02-07T09:33:17.230Z,98795.42
2019-02-07T09:38:39.440Z,98771.91
2019-02-07T09:44:02.000Z,98781.20
2019-02-07T09:49:20.858Z,98775.41
2019-02-07T09:54:47.566Z,98771.10
2019-02-07T10:00:14.033Z,98780.17
2019-02-07T10:05:36.967Z,98790.83
2019-02-07T10:11:12.577Z,98787.41
2019-02-07T10:16:31.348Z,98800.20
2019-02-07T10:21:54.989Z,98807.91
2019-02-07T10:27:18.576Z,98800.12
2019-02-07T10:32:34.276Z,98808.06
2019-02-07T10:38:03.950Z,98809.84
2019-02-07T10:43:30.132Z,98810.70
2019-02-07T10:48:53.881Z,98811.33
2019-02-07T10:54:24.004Z,98803.22
2019-02-07T10:59:46.664Z,98800.61
2019-02-07T11:05:13.042Z,98800.10
2019-02-07T11:10:37.938Z,98794.79
2019-02-07T11:15:59.997Z,98788.86
2019-02-07T11:21:17.424Z,98775.67
2019-02-07T11:26:38.904Z,98770.48
2019-02-07T11:32:20.383Z,98755.23
2019-02-07T11:37:46.755Z,98764.80
2019-02-07T11:43:16.017Z,98751.55
2019-02-07T11:48:45.936Z,98742.67
2019-02-07T11:54:15.558Z,98719.26
2019-02-07T11:59:46.937Z,98713.02
2019-02-07T12:05:10.346Z,98688.45
2019-02-07T12:10:36.682Z,98661.05
2019-02-07T12:16:00.014Z,98680.69
2019-02-07T12:21:31.159Z,98682.58
2019-02-07T12:26:57.529Z,98687.14
2019-02-07T12:32:13.180Z,98695.97
2019-02-07T12:37:38.357Z,98701.34
2019-02-07T12:43:00.508Z,98700.80
2019-02-07T12:48:29.868Z,98697.28
2019-02-07T12:53:50.165Z,98689.37
2019-02-07T12:59:02.298Z,98699.65
2019-02-07T13:04:24.910Z,98691.73
2019-02-07T13:09:44.271Z,98696.73
2019-02-07T13:15:16.672Z,98667.02
2019-02-07T13:20:39.554Z,98675.46
2019-02-07T13:26:03.353Z,98684.38
2019-02-07T13:31:35.962Z,98689.44
2019-02-07T13:36:55.196Z,98686.93
2019-02-07T13:42:27.150Z,98693.36
2019-02-07T13:47:58.481Z,98678.59
2019-02-07T13:53:28.481Z,98671.12
2019-02-07T13:59:01.157Z,98667.09
2019-02-07T14:04:27.654Z,98660.14
2019-02-07T14:09:52.923Z,98659.82
2019-02-07T14:15:19.130Z,98657.72
2019-02-07T14:20:41.091Z,98665.50
2019-02-07T14:26:07.429Z,98671.67
2019-02-07T14:31:33.398Z,98664.02
2019-02-07T14:37:09.192Z,98675.12
2019-02-07T14:42:35.139Z,98674.05
2019-02-07T14:47:39.086Z,98654.16
2019-02-07T14:52:42.851Z,98663.73
2019-02-07T14:57:46.719Z,98682.78
2019-02-07T15:02:50.734Z,98663.58
2019-02-07T15:07:54.480Z,98646.27
2019-02-07T15:13:01.195Z,98655.22
2019-02-07T15:18:04.856Z,98642.47
2019-02-07T15:23:08.637Z,98649.59
2019-02-07T15:28:12.651Z,98648.92
2019-02-07T15:33:16.447Z,98667.53
2019-02-07T15:38:21.598Z,98636.41
2019-02-07T15:43:25.688Z,98618.27
2019-02-07T15:48:29.602Z,98660.22
2019-02-07T15:53:33.435Z,98620.98
2019-02-07T15:58:57.947Z,98627.78
2019-02-07T16:04:20.102Z,98648.97
2019-02-07T16:09:24.040Z,98609.22
2019-02-07T16:14:29.239Z,98624.03
2019-02-07T16:19:34.443Z,98652.02
2019-02-07T16:24:38.599Z,98647.36
2019-02-07T16:29:45.734Z,98642.08
2019-02-07T16:34:49.570Z,98653.19
2019-02-07T16:39:57.349Z,98642.95
2019-02-07T16:45:01.445Z,98633.61
2019-02-07T16:50:07.703Z,98667.76
2019-02-07T16:55:12.551Z,98680.93
2019-02-07T17:00:19.555Z,98680.58
2019-02-07T17:05:23.729Z,98657.95
2019-02-07T17:10:30.601Z,98694.45
2019-02-07T17:15:35.707Z,98680.70
2019-02-07T17:20:39.877Z,98674.59
2019-02-07T17:25:43.786Z,98684.72
2019-02-07T17:30:47.842Z,98680.23
2019-02-07T17:35:52.244Z,98662.20
2019-02-07T17:40:56.421Z,98665.73
2019-02-07T17:46:00.414Z,98668.46
2019-02-07T17:51:05.246Z,98681.95
2019-02-07T17:56:09.558Z,98674.45
2019-02-07T18:01:13.995Z,98680.93
2019-02-07T18:06:21.150Z,98682.22
2019-02-07T18:11:25.131Z,98684.33
2019-02-07T18:16:32.017Z,98672.64
2019-02-07T18:21:40.922Z,98676.72
2019-02-07T18:26:45.482Z,98668.11
2019-02-07T18:31:49.894Z,98665.61
2019-02-07T18:36:53.719Z,98674.36
2019-02-07T18:41:57.659Z,98667.33
2019-02-07T18:47:04.934Z,98658.38
2019-02-07T18:52:09.734Z,98663.96
2019-02-07T18:57:13.906Z,98676.18
2019-02-07T19:02:17.872Z,98669.78
2019-02-07T19:07:25.104Z,98682.00
2019-02-07T19:12:33.400Z,98692.23
2019-02-07T19:17:38.838Z,98695.75
2019-02-07T19:22:42.817Z,98698.48
2019-02-07T19:27:47.106Z,98678.41
2019-02-07T19:32:51.309Z,98674.11
2019-02-07T19:37:55.466Z,98677.59
2019-02-07T19:42:59.260Z,98670.62
2019-02-07T19:48:03.138Z,98680.59
2019-02-07T19:53:06.923Z,98663.68
2019-02-07T19:58:11.532Z,98657.81
2019-02-07T20:03:15.445Z,98640.31
2019-02-07T20:08:19.299Z,98656.36
2019-02-07T20:13:23.230Z,98636.44
2019-02-07T20:18:28.025Z,98669.98
2019-02-07T20:23:32.088Z,98653.66
2019-02-07T20:28:39.172Z,98624.13
2019-02-07T20:33:42.917Z,98644.01
2019-02-07T20:38:49.090Z,98625.30
2019-02-07T20:43:56.321Z,98622.66
2019-02-07T20:49:00.375Z,98620.44
2019-02-07T20:54:07.196Z,98647.61
2019-02-07T20:59:11.287Z,98643.42
2019-02-07T21:04:15.295Z,98640.38
2019-02-07T21:09:20.929Z,98646.63
2019-02-07T21:14:25.264Z,98645.81
2019-02-07T21:19:30.469Z,98643.77
2019-02-07T21:24:34.583Z,98641.51
2019-02-07T21:29:38.512Z,98640.69
2019-02-07T21:34:42.296Z,98642.17
2019-02-07T21:39:46.360Z,98644.47
2019-02-07T21:44:50.057Z,98639.88
2019-02-07T21:49:53.785Z,98655.77
2019-02-07T21:54:58.330Z,98630.42
2019-02-07T22:00:02.543Z,98661.77
2019-02-07T22:05:07.052Z,98662.22
2019-02-07T22:10:12.117Z,98631.36
2019-02-07T22:15:18.723Z,98642.33
2019-02-07T22:20:25.684Z,98646.36
2019-02-07T22:25:32.350Z,98617.66
2019-02-07T22:30:36.035Z,98619.34
2019-02-07T22:35:39.911Z,98625.28
2019-02-07T22:40:44.026Z,98621.25
2019-02-07T22:45:48.487Z,98618.24
2019-02-07T22:50:52.840Z,98614.49
2019-02-07T22:55:57.175Z,98622.06
2019-02-07T23:01:29.505Z,98633.19
2019-02-07T23:06:33.440Z,98631.79
2019-02-07T23:11:37.303Z,98630.49
2019-02-07T23:16:41.647Z,98630.49
2019-02-07T23:21:46.973Z,98624.62
2019-02-07T23:26:51.064Z,98619.77
2019-02-07T23:31:54.838Z,98609.89
2019-02-07T23:37:01.876Z,98600.71
2019-02-07T23:42:06.080Z,98600.13
2019-02-07T23:47:10.033Z,98601.50
2019-02-07T23:52:13.962Z,98602.56
2019-02-07T23:57:17.944Z,98598.65
